Time;durP1;ratioP1;P1;durP2;ratioP2;P2;SDS_P1;SDS_P2;PMS_P1;PMS_P2;Temp;Humidity;BMP_temperature;BMP_pressure;BME280_temperature;BME280_humidity;BME280_pressure;Samples;Min_cycle;Max_cycle;Signal;HPM_P1;HPM_P2
2022/09/06 00:01:13;;;;;;;2.67;1.63;;;;;;;7.94;81.16;99366.16;4878272;29;20045;-61
2022/09/06 00:03:39;;;;;;;1.75;1.63;;;;;;;7.87;81.12;99368.06;4866469;29;20516;-61
2022/09/06 00:06:13;;;;;;;1.88;1.63;;;;;;;7.87;81.39;99365.41;4860777;29;20045;-61
2022/09/06 00:08:40;;;;;;;2.95;2.08;;;;;;;7.84;81.36;99365.84;4871112;29;20071;-60
2022/09/06 00:11:06;;;;;;;1.60;1.50;;;;;;;7.84;81.48;99363.22;4874480;29;20045;-62
2022/09/06 00:13:32;;;;;;;3.53;2.28;;;;;;;7.78;81.16;99364.09;4877880;29;20463;-60
2022/09/06 00:16:10;;;;;;;1.58;1.45;;;;;;;7.78;80.99;99355.38;4877215;29;20052;-61
2022/09/06 00:18:36;;;;;;;2.78;1.67;;;;;;;7.80;81.21;99363.91;4893220;29;20044;-61
2022/09/06 00:21:03;;;;;;;3.33;1.73;;;;;;;7.82;80.98;99361.81;4879350;29;20089;-61
2022/09/06 00:23:29;;;;;;;2.15;1.73;;;;;;;7.78;80.84;99356.19;4875033;29;20049;-60
2022/09/06 00:26:04;;;;;;;1.65;1.48;;;;;;;7.81;81.64;99353.09;4864984;29;20052;-61
2022/09/06 00:28:30;;;;;;;3.17;1.70;;;;;;;7.81;81.21;99355.75;4878070;29;20096;-61
2022/09/06 00:30:56;;;;;;;2.10;1.90;;;;;;;7.82;80.94;99354.69;4877690;29;20140;-60
2022/09/06 00:33:22;;;;;;;2.75;1.98;;;;;;;7.82;80.55;99344.16;4877546;29;20044;-60
2022/09/06 00:35:48;;;;;;;3.45;1.90;;;;;;;7.89;81.29;99352.00;4859110;29;20046;-61
2022/09/06 00:38:14;;;;;;;2.47;2.08;;;;;;;7.83;81.08;99353.69;4860368;29;20419;-61
2022/09/06 00:40:41;;;;;;;2.28;1.90;;;;;;;7.84;81.06;99355.31;4861146;29;20045;-61
2022/09/06 00:43:07;;;;;;;3.35;2.05;;;;;;;7.87;81.39;99356.69;4859922;29;20049;-58
2022/09/06 00:45:33;;;;;;;1.98;1.80;;;;;;;7.91;81.13;99352.56;4861731;29;20045;-61
2022/09/06 00:48:00;;;;;;;3.45;2.33;;;;;;;7.90;81.37;99354.41;4875557;29;20052;-62
2022/09/06 00:50:26;;;;;;;2.55;2.35;;;;;;;7.89;80.94;99352.81;4867633;29;20056;-61
2022/09/06 00:52:53;;;;;;;3.00;1.95;;;;;;;7.86;81.06;99355.91;4877177;29;20051;-63
2022/09/06 00:55:20;;;;;;;3.08;2.00;;;;;;;7.92;81.47;99351.56;4862067;29;20396;-60
2022/09/06 00:57:49;;;;;;;2.97;2.33;;;;;;;7.86;81.67;99352.47;4867333;29;20143;-60
2022/09/06 01:00:17;;;;;;;2.47;2.22;;;;;;;7.85;81.76;99351.66;4871596;29;20057;-60
2022/09/06 01:02:43;;;;;;;2.72;2.35;;;;;;;7.94;80.98;99360.06;4858738;29;20113;-61
2022/09/06 01:05:10;;;;;;;2.10;1.90;;;;;;;7.87;81.29;99352.22;4874596;29;20503;-62
2022/09/06 01:08:03;;;;;;;3.85;2.15;;;;;;;7.90;81.69;99350.97;4863864;29;20064;-60
2022/09/06 01:10:59;;;;;;;3.17;2.58;;;;;;;7.94;81.28;99347.69;4876161;29;20056;-60
2022/09/06 01:13:46;;;;;;;2.97;2.30;;;;;;;7.97;81.39;99351.69;4892199;29;20053;-60
2022/09/06 01:16:38;;;;;;;6.55;2.75;;;;;;;8.00;80.82;99353.09;4876491;29;20056;-61
2022/09/06 01:19:04;;;;;;;4.35;2.58;;;;;;;7.93;80.87;99361.88;4863239;29;20507;-61
2022/09/06 01:21:42;;;;;;;5.35;2.97;;;;;;;7.90;80.36;99357.06;4858040;29;20045;-61
2022/09/06 01:24:30;;;;;;;5.80;3.17;;;;;;;7.93;81.37;99356.63;4859435;29;20050;-59
2022/09/06 01:27:25;;;;;;;3.80;2.80;;;;;;;7.94;80.51;99354.78;4873288;29;20112;-60
2022/09/06 01:29:57;;;;;;;3.88;2.70;;;;;;;7.88;80.47;99351.22;4863046;29;20049;-60
2022/09/06 01:32:29;;;;;;;3.92;2.80;;;;;;;7.90;80.48;99343.06;4869653;29;20084;-60
2022/09/06 01:35:06;;;;;;;3.83;2.83;;;;;;;7.94;80.52;99344.22;4859612;29;20056;-61
2022/09/06 01:37:32;;;;;;;4.13;3.03;;;;;;;7.94;80.99;99350.31;4859122;29;20152;-60
2022/09/06 01:39:58;;;;;;;3.53;2.80;;;;;;;7.96;80.59;99358.00;4860659;29;20559;-61
2022/09/06 01:42:29;;;;;;;3.40;2.83;;;;;;;8.01;81.10;99354.72;4863901;29;20037;-61
2022/09/06 01:45:03;;;;;;;3.72;3.05;;;;;;;8.00;80.93;99355.72;4877619;29;20045;-60
2022/09/06 01:47:37;;;;;;;3.78;2.70;;;;;;;8.01;80.42;99352.09;4861012;29;20092;-61
2022/09/06 01:50:12;;;;;;;3.33;2.85;;;;;;;8.08;79.81;99350.97;4874848;29;20557;-60
2022/09/06 01:53:03;;;;;;;4.10;2.80;;;;;;;8.04;79.66;99357.72;4866231;29;20049;-60
2022/09/06 01:55:36;;;;;;;3.03;2.35;;;;;;;8.04;79.97;99351.63;4872940;29;20619;-61
2022/09/06 01:58:18;;;;;;;4.88;2.83;;;;;;;8.03;79.49;99357.94;4873074;29;20065;-61
2022/09/06 02:00:56;;;;;;;3.38;2.60;;;;;;;8.01;79.67;99360.81;4857890;29;20045;-61
2022/09/06 02:03:43;;;;;;;3.20;2.80;;;;;;;7.92;78.64;99360.28;4875446;29;20068;-61
2022/09/06 02:06:17;;;;;;;3.58;2.63;;;;;;;7.89;78.74;99368.66;4869299;29;20452;-60
2022/09/06 02:08:49;;;;;;;4.03;2.80;;;;;;;7.86;78.57;99369.09;4857659;29;20061;-60
2022/09/06 02:11:15;;;;;;;3.30;3.00;;;;;;;7.78;79.02;99366.75;4860253;29;20037;-60
2022/09/06 02:13:48;;;;;;;3.78;2.55;;;;;;;7.78;78.96;99368.56;4874893;29;20056;-61
2022/09/06 02:16:18;;;;;;;9.93;2.90;;;;;;;7.77;79.37;99351.13;4891919;29;20132;-60
2022/09/06 02:18:47;;;;;;;;;;;;;;;7.82;79.32;99365.25;4876346;29;20052;-60
2022/09/06 02:21:14;;;;;;;3.80;2.88;;;;;;;7.80;80.11;99359.41;4875719;29;19927;-60
2022/09/06 02:23:41;;;;;;;3.78;3.00;;;;;;;7.85;80.15;99362.22;4860310;29;20053;-61
2022/09/06 02:26:17;;;;;;;4.65;2.72;;;;;;;7.81;80.32;99362.84;4876035;29;20045;-61
2022/09/06 02:28:43;;;;;;;3.70;2.20;;;;;;;7.73;78.83;99366.59;4864914;29;20061;-60
2022/09/06 02:31:15;;;;;;;3.72;2.33;;;;;;;7.72;79.39;99365.78;4889838;29;20392;-59
2022/09/06 02:33:44;;;;;;;2.50;2.05;;;;;;;7.62;78.80;99376.03;4877625;29;20065;-60
2022/09/06 02:36:10;;;;;;;4.00;2.40;;;;;;;7.63;79.13;99369.72;4879815;29;20045;-60
2022/09/06 02:38:38;;;;;;;4.75;2.50;;;;;;;7.64;79.34;99358.13;4879176;29;20541;-62
2022/09/06 02:41:07;;;;;;;3.03;1.90;;;;;;;7.67;78.99;99370.09;4864064;29;20053;-61
2022/09/06 02:43:33;;;;;;;3.88;2.50;;;;;;;7.70;79.64;99369.66;4852485;29;20049;-61
2022/09/06 02:45:59;;;;;;;4.25;2.60;;;;;;;7.71;79.53;99363.38;4879355;29;20045;-61
2022/09/06 02:48:25;;;;;;;3.33;2.30;;;;;;;7.71;79.41;99368.66;4893748;29;20052;-60
2022/09/06 02:50:51;;;;;;;2.85;2.33;;;;;;;7.77;78.88;99364.34;4862152;29;20049;-61
2022/09/06 02:53:16;;;;;;;2.40;2.20;;;;;;;7.78;79.34;99368.56;4871553;29;20497;-63
2022/09/06 02:55:45;;;;;;;2.70;2.22;;;;;;;7.79;79.15;99362.25;4861344;29;20075;-60
2022/09/06 02:58:10;;;;;;;2.10;1.90;;;;;;;7.82;78.81;99375.00;4862176;29;20049;-60
2022/09/06 03:00:36;;;;;;;3.13;2.13;;;;;;;7.72;79.00;99363.13;4874776;29;20485;-61
2022/09/06 03:03:03;;;;;;;3.55;2.22;;;;;;;7.71;78.75;99376.56;4869210;29;20052;-61
2022/09/06 03:05:29;;;;;;;3.17;2.00;;;;;;;7.71;79.10;99372.09;4879689;29;20052;-61
2022/09/06 03:07:55;;;;;;;2.47;2.20;;;;;;;7.78;78.83;99371.22;4878766;29;20048;-61
2022/09/06 03:10:23;;;;;;;2.20;2.00;;;;;;;7.70;79.15;99374.94;4879893;29;20041;-61
2022/09/06 03:12:49;;;;;;;3.05;2.10;;;;;;;7.65;78.91;99365.06;4878726;29;20049;-61
2022/09/06 03:15:15;;;;;;;3.33;1.83;;;;;;;7.59;79.18;99365.94;4894573;29;20041;-62
2022/09/06 03:17:42;;;;;;;2.42;2.10;;;;;;;7.67;79.34;99364.81;4880158;29;20049;-60
2022/09/06 03:20:09;;;;;;;4.53;2.30;;;;;;;7.64;79.55;99362.63;4874949;29;20480;-60
2022/09/06 03:22:36;;;;;;;2.78;1.90;;;;;;;7.69;79.19;99366.22;4872854;29;20044;-61
2022/09/06 03:25:02;;;;;;;2.90;2.10;;;;;;;7.70;78.92;99361.75;4879333;29;20060;-61
2022/09/06 03:27:30;;;;;;;1.90;1.70;;;;;;;7.77;78.89;99373.06;4877811;29;20045;-60
2022/09/06 03:29:55;;;;;;;2.17;1.70;;;;;;;7.74;78.78;99373.50;4878488;29;20064;-61
2022/09/06 03:32:21;;;;;;;3.78;2.00;;;;;;;7.70;79.11;99373.09;4892744;29;20041;-60
2022/09/06 03:34:47;;;;;;;2.33;1.80;;;;;;;7.71;78.98;99371.28;4879459;29;20055;-62
2022/09/06 03:37:13;;;;;;;1.75;1.65;;;;;;;7.76;78.49;99370.63;4874123;29;20046;-60
2022/09/06 03:39:38;;;;;;;2.08;1.70;;;;;;;7.86;78.97;99384.94;4870489;29;20468;-62
2022/09/06 03:42:04;;;;;;;1.73;1.42;;;;;;;7.90;78.11;99374.72;4858225;29;20080;-61
2022/09/06 03:44:30;;;;;;;2.58;1.45;;;;;;;7.84;78.56;99379.06;4873989;29;20059;-60
2022/09/06 03:46:56;;;;;;;2.83;1.60;;;;;;;7.85;78.60;99383.31;4861365;29;20048;-60
2022/09/06 03:49:21;;;;;;;1.92;1.52;;;;;;;7.86;78.38;99377.00;4861205;29;20110;-62
2022/09/06 03:51:47;;;;;;;2.75;1.50;;;;;;;8.02;78.39;99380.09;4861160;29;20507;-61
2022/09/06 03:54:13;;;;;;;2.45;1.30;;;;;;;8.04;77.70;99386.75;4860952;29;20136;-61
2022/09/06 03:56:38;;;;;;;2.10;1.23;;;;;;;8.11;77.54;99390.13;4874921;29;20052;-61
2022/09/06 03:59:04;;;;;;;2.88;1.40;;;;;;;8.01;77.34;99396.97;4861828;29;20041;-61
2022/09/06 04:01:30;;;;;;;2.60;1.80;;;;;;;8.02;77.70;99386.16;4859126;29;20045;-60
2022/09/06 04:03:55;;;;;;;2.45;1.60;;;;;;;7.97;78.11;99386.00;4875079;29;20452;-62
2022/09/06 04:06:21;;;;;;;1.92;1.55;;;;;;;7.99;78.03;99377.88;4860846;29;20049;-61
2022/09/06 04:08:47;;;;;;;2.03;1.40;;;;;;;7.94;77.78;99386.44;4860905;29;20092;-62
2022/09/06 04:11:13;;;;;;;1.50;1.40;;;;;;;7.90;77.58;99380.00;4859176;29;20198;-60
2022/09/06 04:13:38;;;;;;;1.42;1.33;;;;;;;7.94;77.62;99383.81;4859801;29;20496;-63
2022/09/06 04:16:04;;;;;;;2.28;1.67;;;;;;;7.85;77.50;99380.69;4859785;29;20508;-62
2022/09/06 04:18:30;;;;;;;4.55;2.20;;;;;;;7.89;77.51;99386.31;4878240;29;20554;-61
2022/09/06 04:20:57;;;;;;;1.30;1.20;;;;;;;7.90;77.29;99387.94;4893334;29;20053;-61
2022/09/06 04:23:24;;;;;;;2.28;1.40;;;;;;;8.00;76.62;99390.88;4877418;29;20480;-62
2022/09/06 04:25:53;;;;;;;2.15;1.27;;;;;;;8.08;75.92;99387.13;4878987;29;20084;-61
2022/09/06 04:28:19;;;;;;;1.67;1.08;;;;;;;8.11;75.48;99387.47;4877950;29;20543;-62
2022/09/06 04:31:02;;;;;;;1.23;1.13;;;;;;;8.08;75.70;99387.13;4893144;29;20128;-62
2022/09/06 04:33:28;;;;;;;2.00;1.10;;;;;;;8.03;75.68;99379.03;4892808;29;20515;-62
2022/09/06 04:35:56;;;;;;;1.10;1.10;;;;;;;8.07;75.51;99383.69;4877393;29;20049;-59
2022/09/06 04:38:26;;;;;;;1.27;1.02;;;;;;;8.14;75.42;99381.75;4857892;29;20435;-62
2022/09/06 04:40:52;;;;;;;;;;;;;;;8.22;74.62;99383.28;4862343;29;20053;-61
2022/09/06 04:43:18;;;;;;;1.52;1.00;;;;;;;8.20;74.77;99386.16;4860064;29;19935;-64
2022/09/06 04:45:44;;;;;;;1.20;1.10;;;;;;;8.25;75.05;99382.06;4858546;29;20365;-61
2022/09/06 04:48:10;;;;;;;1.30;1.20;;;;;;;8.38;74.74;99382.72;4869806;29;20052;-63
2022/09/06 04:50:36;;;;;;;1.33;1.20;;;;;;;8.57;74.66;99380.03;4871538;29;20044;-60
2022/09/06 04:53:05;;;;;;;1.55;1.10;;;;;;;8.54;74.03;99380.50;4877177;29;20045;-62
2022/09/06 04:55:32;;;;;;;1.10;1.10;;;;;;;8.38;74.30;99379.22;4841072;29;20120;-62
2022/09/06 04:57:59;;;;;;;4.43;1.40;;;;;;;8.41;73.35;99384.94;4865042;29;20057;-64
2022/09/06 05:00:30;;;;;;;1.70;1.05;;;;;;;8.40;74.19;99374.56;4867484;29;20085;-63
2022/09/06 05:02:56;;;;;;;2.70;1.10;;;;;;;8.42;74.16;99375.16;4872034;29;20048;-60
2022/09/06 05:05:22;;;;;;;1.38;1.27;;;;;;;8.40;74.32;99375.38;4857868;29;20045;-65
2022/09/06 05:07:52;;;;;;;2.33;1.35;;;;;;;8.48;74.31;99373.47;4859230;29;20596;-61
2022/09/06 05:10:18;;;;;;;1.52;1.30;;;;;;;8.47;74.02;99380.59;4859225;29;20050;-61
2022/09/06 05:12:51;;;;;;;1.65;1.10;;;;;;;8.36;74.13;99371.53;4872910;29;20042;-60
2022/09/06 05:15:17;;;;;;;1.30;1.20;;;;;;;8.45;73.95;99376.56;4858441;29;20055;-61
2022/09/06 05:17:43;;;;;;;1.30;1.20;;;;;;;8.46;74.24;99373.66;4859854;29;20499;-60
2022/09/06 05:20:10;;;;;;;6.28;1.50;;;;;;;8.57;73.92;99386.13;4857712;29;20065;-61
2022/09/06 05:22:36;;;;;;;6.00;3.72;;;;;;;8.60;73.60;99383.03;4892145;29;20047;-62
2022/09/06 05:25:02;;;;;;;2.88;1.88;;;;;;;8.60;73.37;99382.22;4877804;29;20523;-62
2022/09/06 05:27:29;;;;;;;3.20;1.73;;;;;;;8.57;73.47;99388.78;4873124;29;20053;-62
2022/09/06 05:29:55;;;;;;;2.88;1.30;;;;;;;8.48;73.93;99376.09;4843168;29;20047;-63
2022/09/06 05:32:20;;;;;;;1.63;1.52;;;;;;;8.45;73.07;99382.63;4859850;29;20045;-61
2022/09/06 05:34:46;;;;;;;2.67;2.33;;;;;;;8.48;73.49;99387.47;4858695;29;20508;-62
2022/09/06 05:37:12;;;;;;;3.03;2.45;;;;;;;8.54;73.62;99391.06;4859736;29;20114;-61
2022/09/06 05:39:37;;;;;;;2.95;1.77;;;;;;;8.42;73.37;99385.72;4843513;29;20145;-62
2022/09/06 05:42:05;;;;;;;2.42;2.20;;;;;;;8.43;73.65;99382.03;4858339;29;20090;-61
2022/09/06 05:44:35;;;;;;;3.58;1.90;;;;;;;8.53;72.75;99384.13;4857872;29;20068;-62
2022/09/06 05:47:01;;;;;;;3.15;2.10;;;;;;;8.59;72.31;99389.34;4845575;29;20416;-61
2022/09/06 05:49:30;;;;;;;2.35;2.10;;;;;;;8.61;71.80;99384.63;4869667;29;20049;-63
2022/09/06 05:51:56;;;;;;;4.73;2.50;;;;;;;8.78;72.23;99389.31;4876089;29;20535;-59
2022/09/06 05:54:22;;;;;;;2.53;2.33;;;;;;;8.87;71.46;99380.00;4866001;29;20049;-62
2022/09/06 05:56:48;;;;;;;4.57;2.45;;;;;;;8.99;71.29;99394.06;4859145;29;20499;-61
2022/09/06 05:59:14;;;;;;;5.15;2.78;;;;;;;9.21;71.14;99382.97;4858994;29;20049;-63
2022/09/06 06:01:53;;;;;;;2.45;1.90;;;;;;;9.27;68.10;99382.84;4856294;29;20090;-63
2022/09/06 06:04:19;;;;;;;3.25;2.30;;;;;;;9.21;68.24;99385.63;4866334;29;20483;-61
2022/09/06 06:06:45;;;;;;;2.42;1.90;;;;;;;9.24;68.78;99379.88;4873418;29;20041;-61
2022/09/06 06:09:12;;;;;;;2.35;1.67;;;;;;;9.31;69.64;99380.53;4871596;29;20643;-61
2022/09/06 06:11:38;;;;;;;3.17;2.03;;;;;;;9.30;69.29;99384.25;4856375;29;20496;-62
2022/09/06 06:14:04;;;;;;;1.85;1.60;;;;;;;9.50;69.16;99376.78;4861415;29;20500;-61
2022/09/06 06:16:30;;;;;;;4.75;2.20;;;;;;;9.64;68.46;99385.25;4859871;29;20054;-62
2022/09/06 06:18:56;;;;;;;2.92;2.05;;;;;;;9.59;68.08;99381.69;4866485;29;20045;-62
2022/09/06 06:21:29;;;;;;;5.93;2.20;;;;;;;9.54;67.66;99383.19;4881652;29;20037;-61
2022/09/06 06:24:00;;;;;;;4.93;2.22;;;;;;;9.66;68.33;99396.44;4879309;29;20072;-62
2022/09/06 06:26:28;;;;;;;3.75;1.65;;;;;;;9.80;68.03;99393.56;4863639;29;20496;-61
2022/09/06 06:28:56;;;;;;;1.98;1.77;;;;;;;9.94;67.27;99398.38;4858897;29;20049;-59
2022/09/06 06:31:22;;;;;;;2.15;1.40;;;;;;;9.99;66.58;99393.16;4858785;29;20061;-61
2022/09/06 06:33:49;;;;;;;2.58;1.60;;;;;;;9.96;67.31;99406.88;4858640;29;20534;-60
2022/09/06 06:36:15;;;;;;;1.48;1.30;;;;;;;9.89;66.60;99390.31;4858420;29;20049;-60
2022/09/06 06:38:43;;;;;;;3.30;1.35;;;;;;;9.82;67.30;99396.75;4889708;29;20507;-61
2022/09/06 06:41:14;;;;;;;1.70;1.55;;;;;;;9.77;67.34;99400.91;4876570;29;20097;-62
2022/09/06 06:43:40;;;;;;;3.47;1.65;;;;;;;9.76;66.37;99396.66;4867345;29;20045;-61
2022/09/06 06:46:16;;;;;;;3.85;2.08;;;;;;;9.74;66.95;99401.38;4879490;29;20091;-60
2022/09/06 06:48:44;;;;;;;1.70;1.50;;;;;;;9.81;66.16;99388.00;4847016;29;20045;-61
2022/09/06 06:51:15;;;;;;;1.77;1.67;;;;;;;9.75;65.66;99389.75;4871221;29;20045;-61
2022/09/06 06:53:42;;;;;;;1.70;1.60;;;;;;;9.72;66.23;99384.91;4874604;29;20157;-59
2022/09/06 06:56:27;;;;;;;1.67;1.52;;;;;;;9.88;64.20;99379.94;4892945;29;20458;-61
2022/09/06 06:58:56;;;;;;;1.98;1.50;;;;;;;10.11;64.12;99389.69;4861586;29;20081;-62
2022/09/06 07:01:23;;;;;;;1.33;1.23;;;;;;;10.16;63.81;99389.81;4859035;29;20084;-61
2022/09/06 07:03:49;;;;;;;2.88;1.40;;;;;;;10.16;63.67;99395.09;4866546;29;20049;-61
2022/09/06 07:06:16;;;;;;;1.83;1.23;;;;;;;10.15;63.00;99391.66;4876625;29;20044;-61
2022/09/06 07:08:42;;;;;;;3.10;1.25;;;;;;;10.07;63.85;99407.09;4861427;29;20049;-60
2022/09/06 07:11:11;;;;;;;2.40;1.40;;;;;;;10.06;63.94;99393.06;4877884;29;20073;-61
2022/09/06 07:13:37;;;;;;;2.08;1.30;;;;;;;10.06;64.24;99387.75;4875171;29;20526;-62
2022/09/06 07:16:08;;;;;;;1.83;1.13;;;;;;;10.22;63.26;99380.91;4876726;29;20056;-60
2022/09/06 07:18:34;;;;;;;1.38;1.27;;;;;;;10.32;63.73;99375.81;4877809;29;20049;-61
2022/09/06 07:21:00;;;;;;;1.60;1.38;;;;;;;10.38;63.38;99368.78;4890751;29;20117;-62
2022/09/06 07:23:26;;;;;;;3.30;1.77;;;;;;;10.26;63.75;99375.94;4879334;29;20495;-61
2022/09/06 07:25:52;;;;;;;1.95;1.20;;;;;;;10.23;62.57;99377.22;4876131;29;20078;-61
2022/09/06 07:28:17;;;;;;;2.05;1.38;;;;;;;10.38;63.08;99374.91;4876584;29;20072;-59
2022/09/06 07:30:43;;;;;;;1.20;1.00;;;;;;;10.33;62.08;99382.75;4859162;29;20054;-61
2022/09/06 07:33:09;;;;;;;3.30;1.50;;;;;;;10.48;62.68;99370.84;4859229;29;20077;-62
2022/09/06 07:35:34;;;;;;;3.45;1.40;;;;;;;10.46;62.33;99390.41;4873485;29;20047;-61
2022/09/06 07:38:00;;;;;;;4.75;1.30;;;;;;;10.40;62.55;99386.06;4860536;29;20050;-61
2022/09/06 07:40:29;;;;;;;2.25;1.50;;;;;;;10.22;64.14;99362.38;4859154;29;20041;-61
2022/09/06 07:42:58;;;;;;;2.90;1.50;;;;;;;10.19;64.13;99391.97;4874799;29;20061;-63
2022/09/06 07:45:25;;;;;;;1.43;1.33;;;;;;;10.14;64.40;99378.63;4859784;29;20145;-63
2022/09/06 07:47:57;;;;;;;1.42;1.25;;;;;;;10.12;63.96;99378.06;4856925;29;20306;-62
2022/09/06 07:50:24;;;;;;;1.58;1.33;;;;;;;10.15;64.34;99375.75;4859115;29;20443;-62
2022/09/06 07:52:50;;;;;;;1.60;1.35;;;;;;;10.30;63.92;99380.59;4859667;29;20123;-61
2022/09/06 07:55:16;;;;;;;2.50;1.50;;;;;;;10.28;62.03;99369.41;4856632;29;20045;-62
2022/09/06 07:57:41;;;;;;;2.40;1.40;;;;;;;10.53;61.86;99373.56;4860867;29;20125;-61
2022/09/06 08:00:09;;;;;;;3.55;1.50;;;;;;;10.52;61.45;99364.81;4857552;29;20125;-60
2022/09/06 08:02:39;;;;;;;5.03;1.52;;;;;;;10.75;60.98;99363.91;4866115;29;20049;-61
2022/09/06 08:05:05;;;;;;;4.13;1.85;;;;;;;10.86;61.79;99370.19;4872510;29;20135;-61
2022/09/06 08:07:31;;;;;;;2.78;1.55;;;;;;;10.88;61.07;99370.75;4859791;29;20046;-61
2022/09/06 08:09:57;;;;;;;2.60;1.23;;;;;;;10.64;61.60;99368.22;4884893;29;20041;-61
2022/09/06 08:12:24;;;;;;;2.58;1.42;;;;;;;10.63;62.34;99369.25;4862465;29;20042;-61
2022/09/06 08:14:50;;;;;;;1.30;1.20;;;;;;;10.59;61.64;99351.41;4858696;29;20049;-63
2022/09/06 08:17:15;;;;;;;1.88;1.30;;;;;;;10.72;62.01;99358.28;4872163;29;20105;-61
2022/09/06 08:19:41;;;;;;;2.15;1.33;;;;;;;10.96;61.25;99354.44;4857721;29;20185;-61
2022/09/06 08:22:07;;;;;;;1.75;1.65;;;;;;;11.00;62.64;99344.16;4857144;29;20599;-60
2022/09/06 08:24:34;;;;;;;2.35;1.70;;;;;;;11.02;63.00;99348.16;4858662;29;20579;-62
2022/09/06 08:27:01;;;;;;;1.40;1.30;;;;;;;10.93;62.57;99340.88;4861955;29;20464;-61
2022/09/06 08:29:27;;;;;;;3.22;1.95;;;;;;;11.00;63.04;99338.84;4857186;29;20056;-62
2022/09/06 08:31:53;;;;;;;2.20;2.00;;;;;;;10.82;61.56;99337.22;4852880;29;20045;-59
2022/09/06 08:34:18;;;;;;;2.05;1.80;;;;;;;10.69;62.65;99331.19;4855423;29;20042;-61
2022/09/06 08:36:44;;;;;;;3.15;1.88;;;;;;;10.76;62.91;99336.34;4857448;29;20050;-61
2022/09/06 08:39:11;;;;;;;1.70;1.60;;;;;;;11.03;60.08;99331.22;4859143;29;20054;-62
2022/09/06 08:41:57;;;;;;;2.38;1.60;;;;;;;11.15;59.70;99328.50;4855986;29;20045;-61
2022/09/06 08:44:44;;;;;;;1.92;1.52;;;;;;;11.57;58.80;99325.38;4856428;29;20049;-62
2022/09/06 08:47:16;;;;;;;2.95;2.33;;;;;;;11.81;57.79;99320.63;4858424;29;20041;-62
2022/09/06 08:49:54;;;;;;;1.50;1.38;;;;;;;11.62;57.80;99324.63;4857790;29;20123;-61
2022/09/06 08:52:47;;;;;;;1.50;1.40;;;;;;;11.37;58.07;99325.88;4856367;29;20101;-61
2022/09/06 08:55:29;;;;;;;1.50;1.40;;;;;;;11.19;58.26;99320.84;4872564;29;20093;-62
2022/09/06 08:58:17;;;;;;;4.45;1.67;;;;;;;11.27;59.00;99323.91;4856380;29;20060;-61
2022/09/06 09:01:05;;;;;;;2.03;1.58;;;;;;;11.42;58.14;99325.97;4856259;29;20484;-61
2022/09/06 09:03:35;;;;;;;2.33;1.20;;;;;;;11.24;59.33;99327.03;4855475;29;20053;-63
2022/09/06 09:06:04;;;;;;;1.67;1.30;;;;;;;11.02;60.01;99329.59;4854212;29;20576;-62
2022/09/06 09:08:43;;;;;;;1.45;1.35;;;;;;;10.97;60.75;99332.19;4865507;29;20061;-63
2022/09/06 09:11:16;;;;;;;1.75;1.50;;;;;;;10.85;61.35;99336.75;4856052;29;20079;-61
2022/09/06 09:14:01;;;;;;;2.33;1.58;;;;;;;10.81;61.18;99331.13;4856352;29;20052;-62
2022/09/06 09:16:26;;;;;;;2.85;1.50;;;;;;;10.83;62.33;99334.34;4854985;29;20069;-61
2022/09/06 09:18:55;;;;;;;2.80;1.35;;;;;;;10.81;62.32;99338.28;4857469;29;20479;-63
2022/09/06 09:21:23;;;;;;;2.42;1.65;;;;;;;10.74;62.93;99332.34;4826070;29;20105;-61
2022/09/06 09:23:54;;;;;;;1.73;1.50;;;;;;;10.85;61.50;99348.19;4869341;29;20045;-61
2022/09/06 09:26:22;;;;;;;5.25;1.40;;;;;;;10.90;60.93;99342.94;4855286;29;20109;-60
2022/09/06 09:29:03;;;;;;;1.38;1.17;;;;;;;10.87;60.08;99330.16;4857638;29;20053;-62
2022/09/06 09:31:49;;;;;;;3.40;1.45;;;;;;;11.00;60.43;99334.38;4854338;29;20105;-61
2022/09/06 09:34:36;;;;;;;1.83;1.60;;;;;;;11.02;60.33;99323.50;4868425;29;20049;-60
2022/09/06 09:37:24;;;;;;;1.17;1.10;;;;;;;10.96;60.73;99327.13;4871808;29;20562;-62
2022/09/06 09:39:52;;;;;;;2.92;1.40;;;;;;;10.88;61.36;99325.66;4870922;29;20053;-61
2022/09/06 09:42:31;;;;;;;5.05;1.50;;;;;;;10.77;61.49;99330.00;4889524;29;20132;-62
2022/09/06 09:44:57;;;;;;;1.80;1.45;;;;;;;10.58;62.42;99325.94;4855619;29;20049;-63
2022/09/06 09:47:28;;;;;;;1.60;1.50;;;;;;;10.60;62.74;99324.69;4857133;29;20046;-63
2022/09/06 09:49:57;;;;;;;2.38;1.58;;;;;;;10.72;62.52;99327.25;4860777;29;20311;-62
2022/09/06 09:52:28;;;;;;;1.65;1.55;;;;;;;10.76;61.98;99331.03;4871099;29;20049;-64
2022/09/06 09:55:01;;;;;;;3.40;1.60;;;;;;;10.86;63.08;99327.78;4855966;29;20057;-63
2022/09/06 09:57:31;;;;;;;2.65;1.77;;;;;;;10.79;62.78;99340.34;4855917;29;20049;-63
2022/09/06 10:00:00;;;;;;;1.77;1.60;;;;;;;10.93;64.41;99336.34;4854982;29;20492;-66
2022/09/06 10:02:34;;;;;;;4.07;1.60;;;;;;;10.88;62.62;99323.00;4855129;29;20041;-64
2022/09/06 10:05:08;;;;;;;8.93;3.38;;;;;;;10.87;62.99;99322.22;4840727;29;20140;-63
2022/09/06 10:07:41;;;;;;;4.05;2.22;;;;;;;10.91;62.82;99319.88;4856007;29;20049;-63
2022/09/06 10:10:13;;;;;;;5.07;2.08;;;;;;;10.83;63.32;99322.94;4867150;29;20096;-63
2022/09/06 10:12:40;;;;;;;3.25;2.00;;;;;;;10.79;63.01;99327.09;4860490;29;20580;-63
2022/09/06 10:15:12;;;;;;;4.82;2.13;;;;;;;10.78;62.65;99315.69;4853878;29;20056;-64
2022/09/06 10:17:48;;;;;;;2.40;1.98;;;;;;;10.83;62.75;99315.00;4852820;29;20062;-64
2022/09/06 10:20:15;;;;;;;5.07;2.05;;;;;;;10.91;62.47;99314.56;4853475;29;20512;-63
2022/09/06 10:22:59;;;;;;;2.75;1.90;;;;;;;11.11;61.67;99322.03;4854550;29;20057;-65
2022/09/06 10:25:45;;;;;;;2.85;2.25;;;;;;;11.27;61.79;99326.53;4867948;29;20054;-63
2022/09/06 10:28:18;;;;;;;3.72;2.10;;;;;;;11.34;61.63;99316.56;4853100;29;20551;-64
2022/09/06 10:31:05;;;;;;;3.78;2.20;;;;;;;11.44;60.73;99309.78;4867121;29;20057;-64
2022/09/06 10:33:36;;;;;;;3.10;2.33;;;;;;;11.55;60.77;99309.66;4866356;29;20547;-63
2022/09/06 10:36:02;;;;;;;3.60;2.25;;;;;;;11.52;60.52;99304.06;4880264;29;20069;-61
2022/09/06 10:38:53;;;;;;;5.05;2.30;;;;;;;11.41;61.11;99313.72;4857704;29;20186;-63
2022/09/06 10:41:22;;;;;;;5.65;2.47;;;;;;;11.42;60.22;99315.34;4856378;29;20045;-64
2022/09/06 10:44:18;;;;;;;4.18;2.70;;;;;;;11.41;60.84;99308.41;4871615;29;20060;-65
2022/09/06 10:46:45;;;;;;;4.78;2.20;;;;;;;11.40;60.42;99313.97;4866123;29;20047;-63
2022/09/06 10:49:18;;;;;;;4.35;2.35;;;;;;;11.55;60.18;99307.00;4872305;29;20541;-62
2022/09/06 10:51:57;;;;;;;1.95;1.70;;;;;;;11.60;59.85;99303.63;4872075;29;20135;-63
2022/09/06 10:54:23;;;;;;;2.63;2.25;;;;;;;11.64;58.99;99298.63;4868431;29;20084;-64
2022/09/06 10:56:55;;;;;;;5.55;2.38;;;;;;;11.74;59.53;99304.88;4855887;29;20065;-63
2022/09/06 10:59:42;;;;;;;3.45;2.20;;;;;;;11.75;59.28;99303.81;4840399;29;20050;-64
2022/09/06 11:02:46;;;;;;;2.13;1.92;;;;;;;11.71;59.22;99307.22;4859103;29;20486;-63
2022/09/06 11:05:33;;;;;;;5.85;2.63;;;;;;;12.07;58.37;99299.72;4875166;29;20064;-61
2022/09/06 11:08:00;;;;;;;4.35;2.33;;;;;;;12.11;58.02;99301.59;4875849;29;20045;-61
2022/09/06 11:10:39;;;;;;;3.67;2.03;;;;;;;12.23;57.40;99299.59;4871916;29;20064;-61
2022/09/06 11:13:13;;;;;;;3.97;2.08;;;;;;;12.25;57.27;99300.16;4876575;29;20052;-60
2022/09/06 11:16:12;;;;;;;2.50;2.20;;;;;;;12.31;57.06;99293.03;4875129;29;20464;-62
2022/09/06 11:19:10;;;;;;;3.13;2.42;;;;;;;12.32;57.30;99285.88;4856301;29;20053;-61
2022/09/06 11:22:00;;;;;;;3.13;1.80;;;;;;;12.23;57.23;99288.97;4858211;29;20563;-61
2022/09/06 11:24:40;;;;;;;3.38;1.95;;;;;;;12.21;57.58;99287.66;4870115;29;20433;-61
2022/09/06 11:27:30;;;;;;;3.13;2.00;;;;;;;12.30;57.24;99290.66;4811717;29;1356596;-61
2022/09/06 11:29:59;;;;;;;2.65;2.17;;;;;;;12.30;56.33;99286.13;4872998;29;20389;-62
2022/09/06 11:32:27;;;;;;;;;;;;;;;12.14;56.93;99285.16;4841680;29;20052;-62
2022/09/06 11:34:56;;;;;;;4.45;2.63;;;;;;;11.98;57.61;99291.38;4860613;29;19933;-60
2022/09/06 11:37:34;;;;;;;2.15;1.75;;;;;;;11.71;59.16;99286.78;4873395;29;20049;-64
2022/09/06 11:40:07;;;;;;;2.67;1.73;;;;;;;11.61;60.54;99284.00;4874899;29;20137;-62
2022/09/06 11:42:46;;;;;;;2.97;1.80;;;;;;;11.66;61.81;99300.00;4859564;29;20109;-61
2022/09/06 11:45:22;;;;;;;4.43;2.83;;;;;;;11.52;64.29;99288.13;4860766;29;20064;-62
2022/09/06 11:47:50;;;;;;;1.90;1.65;;;;;;;11.47;64.55;99285.41;4867530;29;20045;-61
2022/09/06 11:50:19;;;;;;;2.00;1.67;;;;;;;11.56;63.54;99283.94;4879365;29;20077;-61
2022/09/06 11:53:16;;;;;;;4.72;2.10;;;;;;;11.47;64.65;99269.47;4877543;29;20078;-61
2022/09/06 11:56:09;;;;;;;1.77;1.67;;;;;;;11.55;64.05;99272.50;4858940;29;20057;-61